sensor_id;sensor_type;location;lat;lon;timestamp;pressure;altitude;pressure_sealevel;temperature;humidity
51313;BME280;37397;53.226;10.400;2023-03-20T00:00:50;101253.44;;;11.25;69.04
51313;BME280;37397;53.226;10.400;2023-03-20T00:03:17;101243.75;;;11.23;68.86
51313;BME280;37397;53.226;10.400;2023-03-20T00:05:44;101251.84;;;11.24;68.97
51313;BME280;37397;53.226;10.400;2023-03-20T00:08:10;101248.19;;;11.24;69.05
51313;BME280;37397;53.226;10.400;2023-03-20T00:10:40;101249.94;;;11.21;69.04
51313;BME280;37397;53.226;10.400;2023-03-20T00:13:14;101252.47;;;11.19;69.00
51313;BME280;37397;53.226;10.400;2023-03-20T00:15:46;101255.63;;;11.21;69.02
51313;BME280;37397;53.226;10.400;2023-03-20T00:18:18;101250.41;;;11.20;68.95
51313;BME280;37397;53.226;10.400;2023-03-20T00:20:48;101248.66;;;11.22;69.07
51313;BME280;37397;53.226;10.400;2023-03-20T00:23:16;101247.06;;;11.21;69.03
51313;BME280;37397;53.226;10.400;2023-03-20T00:25:44;101251.53;;;11.22;68.85
51313;BME280;37397;53.226;10.400;2023-03-20T00:28:41;101238.00;;;11.13;68.87
51313;BME280;37397;53.226;10.400;2023-03-20T00:33:52;101239.44;;;11.18;69.10
51313;BME280;37397;53.226;10.400;2023-03-20T00:36:19;101242.31;;;11.18;68.96
51313;BME280;37397;53.226;10.400;2023-03-20T00:38:46;101231.81;;;11.15;69.13
51313;BME280;37397;53.226;10.400;2023-03-20T00:41:25;101231.03;;;11.15;68.78
51313;BME280;37397;53.226;10.400;2023-03-20T00:44:01;101227.41;;;11.14;68.81
51313;BME280;37397;53.226;10.400;2023-03-20T00:46:31;101238.66;;;11.18;68.84
51313;BME280;37397;53.226;10.400;2023-03-20T00:49:04;101234.22;;;11.17;69.12
51313;BME280;37397;53.226;10.400;2023-03-20T00:51:31;101233.44;;;11.16;68.99
51313;BME280;37397;53.226;10.400;2023-03-20T00:53:58;101239.13;;;11.16;69.04
51313;BME280;37397;53.226;10.400;2023-03-20T00:56:39;101228.97;;;11.15;69.13
51313;BME280;37397;53.226;10.400;2023-03-20T00:59:15;101222.63;;;11.11;68.94
51313;BME280;37397;53.226;10.400;2023-03-20T01:01:43;101235.16;;;11.13;68.84
51313;BME280;37397;53.226;10.400;2023-03-20T01:04:12;101234.69;;;11.15;69.07
51313;BME280;37397;53.226;10.400;2023-03-20T01:06:39;101229.91;;;11.12;69.11
51313;BME280;37397;53.226;10.400;2023-03-20T01:09:06;101244.53;;;11.14;69.13
51313;BME280;37397;53.226;10.400;2023-03-20T01:11:33;101231.53;;;11.13;69.02
51313;BME280;37397;53.226;10.400;2023-03-20T01:14:00;101231.22;;;11.11;69.14
51313;BME280;37397;53.226;10.400;2023-03-20T01:16:28;101227.06;;;11.12;69.10
51313;BME280;37397;53.226;10.400;2023-03-20T01:18:54;101225.16;;;11.09;69.33
51313;BME280;37397;53.226;10.400;2023-03-20T01:21:22;101241.34;;;11.12;69.31
51313;BME280;37397;53.226;10.400;2023-03-20T01:23:49;101234.84;;;11.11;69.16
51313;BME280;37397;53.226;10.400;2023-03-20T01:26:28;101234.84;;;11.11;69.12
51313;BME280;37397;53.226;10.400;2023-03-20T01:28:56;101225.63;;;11.07;69.21
51313;BME280;37397;53.226;10.400;2023-03-20T01:31:23;101229.13;;;11.11;69.09
51313;BME280;37397;53.226;10.400;2023-03-20T01:33:49;101229.78;;;11.06;68.93
51313;BME280;37397;53.226;10.400;2023-03-20T01:36:20;101227.69;;;11.07;69.15
51313;BME280;37397;53.226;10.400;2023-03-20T01:38:57;101239.44;;;11.09;69.06
51313;BME280;37397;53.226;10.400;2023-03-20T01:41:25;101233.72;;;11.09;69.26
51313;BME280;37397;53.226;10.400;2023-03-20T01:43:52;101230.88;;;11.09;69.27
51313;BME280;37397;53.226;10.400;2023-03-20T01:51:29;101240.38;;;11.06;69.15
51313;BME280;37397;53.226;10.400;2023-03-20T01:54:29;101248.16;;;11.05;69.27
51313;BME280;37397;53.226;10.400;2023-03-20T01:57:07;101244.84;;;11.07;69.02
51313;BME280;37397;53.226;10.400;2023-03-20T02:00:03;101247.38;;;11.05;69.26
51313;BME280;37397;53.226;10.400;2023-03-20T02:02:40;101248.94;;;11.06;69.25
51313;BME280;37397;53.226;10.400;2023-03-20T02:05:14;101242.47;;;11.05;69.33
51313;BME280;37397;53.226;10.400;2023-03-20T02:07:44;101233.56;;;11.03;69.27
51313;BME280;37397;53.226;10.400;2023-03-20T02:10:15;101239.13;;;11.07;69.21
51313;BME280;37397;53.226;10.400;2023-03-20T02:12:52;101243.25;;;11.06;69.18
51313;BME280;37397;53.226;10.400;2023-03-20T02:15:29;101232.75;;;11.03;69.33
51313;BME280;37397;53.226;10.400;2023-03-20T02:18:13;101247.03;;;11.03;69.43
51313;BME280;37397;53.226;10.400;2023-03-20T02:23:55;101229.28;;;10.99;69.29
51313;BME280;37397;53.226;10.400;2023-03-20T02:26:41;101238.47;;;11.03;69.40
51313;BME280;37397;53.226;10.400;2023-03-20T02:35:11;101225.66;;;10.98;69.08
51313;BME280;37397;53.226;10.400;2023-03-20T02:46:39;101215.78;;;10.99;69.42
51313;BME280;37397;53.226;10.400;2023-03-20T02:52:18;101220.41;;;10.97;69.59
51313;BME280;37397;53.226;10.400;2023-03-20T02:55:09;101218.34;;;10.97;69.38
51313;BME280;37397;53.226;10.400;2023-03-20T03:00:23;101222.78;;;10.98;69.52
51313;BME280;37397;53.226;10.400;2023-03-20T03:02:57;101217.88;;;10.99;69.41
51313;BME280;37397;53.226;10.400;2023-03-20T03:05:48;101214.34;;;10.94;69.59
51313;BME280;37397;53.226;10.400;2023-03-20T03:08:19;101227.22;;;10.99;69.52
51313;BME280;37397;53.226;10.400;2023-03-20T03:10:58;101227.38;;;10.95;69.62
51313;BME280;37397;53.226;10.400;2023-03-20T03:13:28;101219.94;;;10.98;69.56
51313;BME280;37397;53.226;10.400;2023-03-20T03:15:59;101215.00;;;10.99;69.57
51313;BME280;37397;53.226;10.400;2023-03-20T03:18:30;101218.81;;;10.95;69.74
51313;BME280;37397;53.226;10.400;2023-03-20T03:21:02;101207.69;;;10.98;69.73
51313;BME280;37397;53.226;10.400;2023-03-20T03:23:39;101215.00;;;10.99;69.62
51313;BME280;37397;53.226;10.400;2023-03-20T03:26:09;101213.41;;;10.98;69.51
51313;BME280;37397;53.226;10.400;2023-03-20T03:28:43;101207.38;;;10.95;69.82
51313;BME280;37397;53.226;10.400;2023-03-20T03:31:15;101211.03;;;10.96;69.85
51313;BME280;37397;53.226;10.400;2023-03-20T03:33:51;101221.97;;;10.98;69.84
51313;BME280;37397;53.226;10.400;2023-03-20T03:36:59;101221.19;;;10.97;69.82
51313;BME280;37397;53.226;10.400;2023-03-20T03:39:52;101218.34;;;10.97;69.77
51313;BME280;37397;53.226;10.400;2023-03-20T03:42:26;101219.13;;;10.98;69.83
51313;BME280;37397;53.226;10.400;2023-03-20T03:45:14;101217.69;;;10.93;69.96
51313;BME280;37397;53.226;10.400;2023-03-20T03:47:46;101209.13;;;10.93;69.93
51313;BME280;37397;53.226;10.400;2023-03-20T03:50:22;101211.84;;;10.97;69.96
51313;BME280;37397;53.226;10.400;2023-03-20T03:52:57;101205.78;;;10.94;70.15
51313;BME280;37397;53.226;10.400;2023-03-20T03:55:28;101211.84;;;10.97;70.01
51313;BME280;37397;53.226;10.400;2023-03-20T04:00:49;101206.13;;;10.97;70.06
51313;BME280;37397;53.226;10.400;2023-03-20T04:03:20;101199.75;;;10.92;69.97
51313;BME280;37397;53.226;10.400;2023-03-20T04:05:50;101209.28;;;10.99;69.89
51313;BME280;37397;53.226;10.400;2023-03-20T04:08:19;101200.41;;;10.97;70.29
51313;BME280;37397;53.226;10.400;2023-03-20T04:10:46;101194.84;;;10.93;69.98
51313;BME280;37397;53.226;10.400;2023-03-20T04:13:12;101204.06;;;10.97;70.11
51313;BME280;37397;53.226;10.400;2023-03-20T04:15:39;101193.41;;;10.98;70.13
51313;BME280;37397;53.226;10.400;2023-03-20T04:18:08;101197.88;;;10.99;70.03
51313;BME280;37397;53.226;10.400;2023-03-20T04:20:37;101197.88;;;10.99;69.83
51313;BME280;37397;53.226;10.400;2023-03-20T04:23:04;101194.22;;;10.98;69.92
51313;BME280;37397;53.226;10.400;2023-03-20T04:25:31;101197.09;;;10.98;70.04
51313;BME280;37397;53.226;10.400;2023-03-20T04:27:57;101190.56;;;10.98;69.95
51313;BME280;37397;53.226;10.400;2023-03-20T04:30:36;101186.13;;;10.97;69.74
51313;BME280;37397;53.226;10.400;2023-03-20T04:33:21;101196.28;;;10.98;70.08
51313;BME280;37397;53.226;10.400;2023-03-20T04:36:05;101189.94;;;10.93;69.95
51313;BME280;37397;53.226;10.400;2023-03-20T04:38:32;101195.66;;;10.93;70.00
51313;BME280;37397;53.226;10.400;2023-03-20T04:40:59;101186.75;;;10.91;70.29
51313;BME280;37397;53.226;10.400;2023-03-20T04:43:26;101191.50;;;10.94;70.18
51313;BME280;37397;53.226;10.400;2023-03-20T04:45:54;101193.09;;;10.95;70.13
51313;BME280;37397;53.226;10.400;2023-03-20T04:48:20;101195.66;;;10.93;70.03
51313;BME280;37397;53.226;10.400;2023-03-20T04:50:47;101190.72;;;10.94;70.10
51313;BME280;37397;53.226;10.400;2023-03-20T04:53:16;101189.13;;;10.93;69.90
51313;BME280;37397;53.226;10.400;2023-03-20T04:55:47;101192.81;;;10.93;69.99
51313;BME280;37397;53.226;10.400;2023-03-20T04:58:14;101193.59;;;10.94;70.01
51313;BME280;37397;53.226;10.400;2023-03-20T05:00:42;101198.03;;;10.95;70.04
51313;BME280;37397;53.226;10.400;2023-03-20T05:03:09;101200.56;;;10.93;69.96
51313;BME280;37397;53.226;10.400;2023-03-20T05:05:38;101204.22;;;10.93;70.00
51313;BME280;37397;53.226;10.400;2023-03-20T05:08:05;101199.28;;;10.94;70.09
51313;BME280;37397;53.226;10.400;2023-03-20T05:10:34;101200.06;;;10.94;70.03
51313;BME280;37397;53.226;10.400;2023-03-20T05:13:21;101199.75;;;10.92;70.09
51313;BME280;37397;53.226;10.400;2023-03-20T05:16:17;101198.16;;;10.91;70.07
51313;BME280;37397;53.226;10.400;2023-03-20T05:18:54;101202.16;;;10.94;70.17
51313;BME280;37397;53.226;10.400;2023-03-20T05:21:38;101212.78;;;10.93;70.13
51313;BME280;37397;53.226;10.400;2023-03-20T05:24:30;101206.75;;;10.91;69.98
51313;BME280;37397;53.226;10.400;2023-03-20T05:27:14;101207.38;;;10.86;70.09
51313;BME280;37397;53.226;10.400;2023-03-20T05:29:47;101194.84;;;10.84;70.17
51313;BME280;37397;53.226;10.400;2023-03-20T05:32:43;101205.81;;;10.85;70.30
51313;BME280;37397;53.226;10.400;2023-03-20T05:35:29;101201.19;;;10.88;70.29
51313;BME280;37397;53.226;10.400;2023-03-20T05:38:02;101207.72;;;10.88;70.23
51313;BME280;37397;53.226;10.400;2023-03-20T05:40:58;101216.28;;;10.88;70.25
51313;BME280;37397;53.226;10.400;2023-03-20T05:43:34;101213.09;;;10.86;70.26
51313;BME280;37397;53.226;10.400;2023-03-20T05:46:18;101224.50;;;10.86;70.28
51313;BME280;37397;53.226;10.400;2023-03-20T05:49:04;101215.63;;;10.84;70.10
51313;BME280;37397;53.226;10.400;2023-03-20T05:52:05;101212.47;;;10.82;70.13
51313;BME280;37397;53.226;10.400;2023-03-20T05:54:40;101220.06;;;10.85;70.06
51313;BME280;37397;53.226;10.400;2023-03-20T05:57:30;101206.75;;;10.82;70.05
51313;BME280;37397;53.226;10.400;2023-03-20T06:00:08;101203.56;;;10.80;70.16
51313;BME280;37397;53.226;10.400;2023-03-20T06:02:38;101203.56;;;10.80;69.90
51313;BME280;37397;53.226;10.400;2023-03-20T06:05:25;101216.88;;;10.83;70.02
51313;BME280;37397;53.226;10.400;2023-03-20T06:07:51;101216.88;;;10.83;69.97
51313;BME280;37397;53.226;10.400;2023-03-20T06:10:18;101221.34;;;10.84;69.89
51313;BME280;37397;53.226;10.400;2023-03-20T06:12:47;101220.22;;;10.82;69.99
51313;BME280;37397;53.226;10.400;2023-03-20T06:15:15;101225.44;;;10.83;69.88
51313;BME280;37397;53.226;10.400;2023-03-20T06:17:48;101230.38;;;10.83;69.86
51313;BME280;37397;53.226;10.400;2023-03-20T06:20:14;101225.91;;;10.82;69.77
51313;BME280;37397;53.226;10.400;2023-03-20T06:22:42;101227.38;;;10.77;69.85
51313;BME280;37397;53.226;10.400;2023-03-20T06:25:10;101231.16;;;10.83;69.77
51313;BME280;37397;53.226;10.400;2023-03-20T06:27:40;101239.72;;;10.83;69.91
51313;BME280;37397;53.226;10.400;2023-03-20T06:30:08;101237.81;;;10.80;69.70
51313;BME280;37397;53.226;10.400;2023-03-20T06:32:35;101245.91;;;10.82;69.83
51313;BME280;37397;53.226;10.400;2023-03-20T06:35:05;101249.22;;;10.80;69.45
51313;BME280;37397;53.226;10.400;2023-03-20T06:37:33;101261.78;;;10.83;69.84
51313;BME280;37397;53.226;10.400;2023-03-20T06:40:06;101253.69;;;10.81;69.88
51313;BME280;37397;53.226;10.400;2023-03-20T06:42:34;101240.34;;;10.78;69.75
51313;BME280;37397;53.226;10.400;2023-03-20T06:45:01;101247.97;;;10.81;69.68
51313;BME280;37397;53.226;10.400;2023-03-20T06:47:50;101252.44;;;10.82;69.61
51313;BME280;37397;53.226;10.400;2023-03-20T06:50:16;101257.78;;;10.80;69.70
51313;BME280;37397;53.226;10.400;2023-03-20T06:52:43;101262.25;;;10.81;69.65
51313;BME280;37397;53.226;10.400;2023-03-20T06:55:30;101260.19;;;10.82;69.73
51313;BME280;37397;53.226;10.400;2023-03-20T06:57:56;101251.47;;;10.76;69.64
51313;BME280;37397;53.226;10.400;2023-03-20T07:00:23;101254.16;;;10.80;69.60
51313;BME280;37397;53.226;10.400;2023-03-20T07:02:50;101261.13;;;10.79;69.67
51313;BME280;37397;53.226;10.400;2023-03-20T07:05:17;101252.56;;;10.79;69.70
51313;BME280;37397;53.226;10.400;2023-03-20T07:07:44;101263.84;;;10.82;69.64
51313;BME280;37397;53.226;10.400;2023-03-20T07:10:11;101258.59;;;10.81;69.65
51313;BME280;37397;53.226;10.400;2023-03-20T07:12:41;101257.00;;;10.80;69.66
51313;BME280;37397;53.226;10.400;2023-03-20T07:15:07;101266.34;;;10.80;69.54
51313;BME280;37397;53.226;10.400;2023-03-20T07:17:34;101274.44;;;10.82;69.60
51313;BME280;37397;53.226;10.400;2023-03-20T07:20:02;101271.59;;;10.82;69.57
51313;BME280;37397;53.226;10.400;2023-03-20T07:22:29;101272.41;;;10.82;69.51
51313;BME280;37397;53.226;10.400;2023-03-20T07:25:11;101270.81;;;10.81;69.68
51313;BME280;37397;53.226;10.400;2023-03-20T07:27:39;101264.47;;;10.77;69.68
51313;BME280;37397;53.226;10.400;2023-03-20T07:30:06;101280.97;;;10.82;69.51
51313;BME280;37397;53.226;10.400;2023-03-20T07:32:33;101269.56;;;10.82;69.67
51313;BME280;37397;53.226;10.400;2023-03-20T07:35:03;101278.13;;;10.82;69.55
51313;BME280;37397;53.226;10.400;2023-03-20T07:37:30;101288.25;;;10.83;69.62
51313;BME280;37397;53.226;10.400;2023-03-20T07:40:00;101280.97;;;10.82;69.60
51313;BME280;37397;53.226;10.400;2023-03-20T07:42:31;101282.53;;;10.83;69.73
51313;BME280;37397;53.226;10.400;2023-03-20T07:45:07;101276.84;;;10.83;69.60
51313;BME280;37397;53.226;10.400;2023-03-20T07:47:35;101276.06;;;10.83;69.73
51313;BME280;37397;53.226;10.400;2023-03-20T07:50:03;101280.97;;;10.82;69.60
51313;BME280;37397;53.226;10.400;2023-03-20T07:52:33;101284.94;;;10.85;69.76
51313;BME280;37397;53.226;10.400;2023-03-20T07:55:00;101288.59;;;10.85;69.68
51313;BME280;37397;53.226;10.400;2023-03-20T07:57:27;101280.16;;;10.82;69.54
51313;BME280;37397;53.226;10.400;2023-03-20T07:59:56;101277.19;;;10.85;69.75
51313;BME280;37397;53.226;10.400;2023-03-20T08:02:22;101282.88;;;10.85;69.79
51313;BME280;37397;53.226;10.400;2023-03-20T08:04:48;101278.44;;;10.84;69.79
51313;BME280;37397;53.226;10.400;2023-03-20T08:07:15;101281.59;;;10.86;69.76
51313;BME280;37397;53.226;10.400;2023-03-20T08:09:42;101283.22;;;10.87;69.75
51313;BME280;37397;53.226;10.400;2023-03-20T08:12:08;101283.22;;;10.87;70.00
51313;BME280;37397;53.226;10.400;2023-03-20T08:14:35;101281.59;;;10.86;69.74
51313;BME280;37397;53.226;10.400;2023-03-20T08:17:04;101287.16;;;10.90;69.84
51313;BME280;37397;53.226;10.400;2023-03-20T08:19:41;101287.31;;;10.86;69.96
51313;BME280;37397;53.226;10.400;2023-03-20T08:22:07;101283.22;;;10.87;69.80
51313;BME280;37397;53.226;10.400;2023-03-20T08:24:34;101294.47;;;10.91;69.73
51313;BME280;37397;53.226;10.400;2023-03-20T08:27:00;101291.47;;;10.85;69.83
51313;BME280;37397;53.226;10.400;2023-03-20T08:29:27;101305.09;;;10.90;69.59
51313;BME280;37397;53.226;10.400;2023-03-20T08:31:54;101306.69;;;10.91;69.50
51313;BME280;37397;53.226;10.400;2023-03-20T08:34:21;101309.22;;;10.89;69.67
51313;BME280;37397;53.226;10.400;2023-03-20T08:36:49;101305.88;;;10.91;69.66
51313;BME280;37397;53.226;10.400;2023-03-20T08:39:17;101318.91;;;10.92;69.60
51313;BME280;37397;53.226;10.400;2023-03-20T08:41:44;101313.19;;;10.92;69.73
51313;BME280;37397;53.226;10.400;2023-03-20T08:44:11;101305.41;;;10.92;69.69
51313;BME280;37397;53.226;10.400;2023-03-20T08:46:38;101312.53;;;10.88;69.64
51313;BME280;37397;53.226;10.400;2023-03-20T08:49:05;101313.97;;;10.92;69.67
51313;BME280;37397;53.226;10.400;2023-03-20T08:51:32;101324.63;;;10.92;69.75
51313;BME280;37397;53.226;10.400;2023-03-20T08:53:59;101314.78;;;10.93;69.58
51313;BME280;37397;53.226;10.400;2023-03-20T08:56:25;101299.09;;;10.88;69.67
51313;BME280;37397;53.226;10.400;2023-03-20T08:58:52;101318.09;;;10.91;69.62
51313;BME280;37397;53.226;10.400;2023-03-20T09:01:21;101321.28;;;10.93;69.59
51313;BME280;37397;53.226;10.400;2023-03-20T09:03:48;101315.59;;;10.93;69.76
51313;BME280;37397;53.226;10.400;2023-03-20T09:06:14;101322.88;;;10.94;69.58
51313;BME280;37397;53.226;10.400;2023-03-20T09:08:41;101318.75;;;10.95;69.68
51313;BME280;37397;53.226;10.400;2023-03-20T09:11:07;101304.94;;;10.94;69.75
51313;BME280;37397;53.226;10.400;2023-03-20T09:13:34;101305.72;;;10.94;69.62
51313;BME280;37397;53.226;10.400;2023-03-20T09:16:01;101314.63;;;10.97;69.73
51313;BME280;37397;53.226;10.400;2023-03-20T09:18:28;101299.25;;;10.94;69.81
51313;BME280;37397;53.226;10.400;2023-03-20T09:20:55;101314.63;;;10.97;69.57
51313;BME280;37397;53.226;10.400;2023-03-20T09:23:22;101313.34;;;10.98;69.53
51313;BME280;37397;53.226;10.400;2023-03-20T09:25:49;101308.13;;;10.96;69.66
51313;BME280;37397;53.226;10.400;2023-03-20T09:28:15;101310.50;;;10.98;69.56
51313;BME280;37397;53.226;10.400;2023-03-20T09:30:41;101317.03;;;10.98;69.54
51313;BME280;37397;53.226;10.400;2023-03-20T09:33:09;101314.47;;;11.00;69.62
51313;BME280;37397;53.226;10.400;2023-03-20T09:35:36;101319.72;;;11.02;69.37
51313;BME280;37397;53.226;10.400;2023-03-20T09:38:02;101314.63;;;10.97;69.59
51313;BME280;37397;53.226;10.400;2023-03-20T09:40:37;101311.31;;;10.98;69.38
51313;BME280;37397;53.226;10.400;2023-03-20T09:43:44;101316.22;;;10.98;69.20
51313;BME280;37397;53.226;10.400;2023-03-20T09:49:36;101317.81;;;10.99;69.28
51313;BME280;37397;53.226;10.400;2023-03-20T09:52:21;101323.53;;;10.99;69.49
51313;BME280;37397;53.226;10.400;2023-03-20T09:54:52;101323.53;;;10.99;69.19
51313;BME280;37397;53.226;10.400;2023-03-20T09:57:50;101309.53;;;10.91;69.17
51313;BME280;37397;53.226;10.400;2023-03-20T10:00:20;101321.91;;;10.98;69.35
51313;BME280;37397;53.226;10.400;2023-03-20T10:02:52;101320.34;;;10.97;69.08
51313;BME280;37397;53.226;10.400;2023-03-20T10:05:28;101321.91;;;10.98;69.26
51313;BME280;37397;53.226;10.400;2023-03-20T10:07:57;101316.22;;;10.98;69.19
51313;BME280;37397;53.226;10.400;2023-03-20T10:16:12;101316.56;;;11.00;68.99
51313;BME280;37397;53.226;10.400;2023-03-20T10:18:50;101306.38;;;10.99;68.94
51313;BME280;37397;53.226;10.400;2023-03-20T10:21:29;101319.72;;;11.02;69.05
51313;BME280;37397;53.226;10.400;2023-03-20T10:24:05;101313.34;;;10.98;68.82
51313;BME280;37397;53.226;10.400;2023-03-20T10:26:39;101312.09;;;10.99;68.91
51313;BME280;37397;53.226;10.400;2023-03-20T10:29:14;101317.81;;;10.99;68.82
51313;BME280;37397;53.226;10.400;2023-03-20T10:31:53;101319.25;;;11.03;68.69
51313;BME280;37397;53.226;10.400;2023-03-20T10:39:58;101315.59;;;11.03;68.69
51313;BME280;37397;53.226;10.400;2023-03-20T10:42:32;101317.19;;;11.04;68.53
51313;BME280;37397;53.226;10.400;2023-03-20T10:45:22;101313.53;;;11.03;68.33
51313;BME280;37397;53.226;10.400;2023-03-20T10:47:54;101310.22;;;11.05;68.36
51313;BME280;37397;53.226;10.400;2023-03-20T10:50:27;101308.63;;;11.04;68.33
51313;BME280;37397;53.226;10.400;2023-03-20T10:52:56;101312.59;;;11.06;68.22
51313;BME280;37397;53.226;10.400;2023-03-20T10:55:27;101298.44;;;11.03;68.19
51313;BME280;37397;53.226;10.400;2023-03-20T10:58:02;101301.97;;;11.07;68.34
51313;BME280;37397;53.226;10.400;2023-03-20T11:00:30;101290.69;;;11.03;68.15
51313;BME280;37397;53.226;10.400;2023-03-20T11:02:56;101300.34;;;11.06;68.29
51313;BME280;37397;53.226;10.400;2023-03-20T11:05:35;101292.91;;;11.08;68.47
51313;BME280;37397;53.226;10.400;2023-03-20T11:08:13;101300.53;;;11.11;68.38
51313;BME280;37397;53.226;10.400;2023-03-20T11:10:42;101296.56;;;11.09;68.28
51313;BME280;37397;53.226;10.400;2023-03-20T11:13:24;101304.19;;;11.12;68.12
51313;BME280;37397;53.226;10.400;2023-03-20T11:15:52;101293.22;;;11.10;67.98
51313;BME280;37397;53.226;10.400;2023-03-20T11:18:23;101288.66;;;11.13;68.07
51313;BME280;37397;53.226;10.400;2023-03-20T11:20:55;101281.66;;;11.14;68.09
51313;BME280;37397;53.226;10.400;2023-03-20T11:23:32;101285.31;;;11.15;67.88
51313;BME280;37397;53.226;10.400;2023-03-20T11:26:00;101286.75;;;11.19;67.97
51313;BME280;37397;53.226;10.400;2023-03-20T11:28:35;101275.16;;;11.13;67.83
51313;BME280;37397;53.226;10.400;2023-03-20T11:31:15;101274.50;;;11.19;67.73
51313;BME280;37397;53.226;10.400;2023-03-20T11:33:50;101284.22;;;11.21;67.89
51313;BME280;37397;53.226;10.400;2023-03-20T11:36:23;101277.84;;;11.17;67.82
51313;BME280;37397;53.226;10.400;2023-03-20T11:38:58;101273.72;;;11.18;67.47
51313;BME280;37397;53.226;10.400;2023-03-20T11:41:27;101267.41;;;11.14;67.59
51313;BME280;37397;53.226;10.400;2023-03-20T11:43:54;101278.03;;;11.23;67.91
51313;BME280;37397;53.226;10.400;2023-03-20T11:46:22;101275.16;;;11.23;67.69
51313;BME280;37397;53.226;10.400;2023-03-20T11:49:03;101274.38;;;11.22;67.73
51313;BME280;37397;53.226;10.400;2023-03-20T11:51:32;101272.78;;;11.21;67.75
51313;BME280;37397;53.226;10.400;2023-03-20T11:54:03;101269.44;;;11.23;67.76
51313;BME280;37397;53.226;10.400;2023-03-20T11:56:32;101260.41;;;11.24;67.83
51313;BME280;37397;53.226;10.400;2023-03-20T12:01:37;101255.78;;;11.27;67.47
51313;BME280;37397;53.226;10.400;2023-03-20T12:04:10;101243.25;;;11.24;67.42
51313;BME280;37397;53.226;10.400;2023-03-20T12:06:53;101250.88;;;11.27;67.40
51313;BME280;37397;53.226;10.400;2023-03-20T12:09:31;101241.50;;;11.27;67.42
51313;BME280;37397;53.226;10.400;2023-03-20T12:17:26;101253.88;;;11.33;67.74
51313;BME280;37397;53.226;10.400;2023-03-20T12:19:58;101257.09;;;11.35;67.76
51313;BME280;37397;53.226;10.400;2023-03-20T12:22:33;101259.00;;;11.38;67.74
51313;BME280;37397;53.226;10.400;2023-03-20T12:25:34;101250.06;;;11.36;67.48
51313;BME280;37397;53.226;10.400;2023-03-20T12:28:10;101260.09;;;11.41;67.57
51313;BME280;37397;53.226;10.400;2023-03-20T12:30:48;101254.69;;;11.43;67.62
51313;BME280;37397;53.226;10.400;2023-03-20T12:35:50;101249.91;;;11.40;67.42
51313;BME280;37397;53.226;10.400;2023-03-20T12:38:26;101258.97;;;11.47;67.62
51313;BME280;37397;53.226;10.400;2023-03-20T12:40:59;101246.44;;;11.45;67.42
51313;BME280;37397;53.226;10.400;2023-03-20T12:43:43;101251.50;;;11.50;67.28
51313;BME280;37397;53.226;10.400;2023-03-20T12:46:50;101244.19;;;11.49;67.55
51313;BME280;37397;53.226;10.400;2023-03-20T12:52:25;101246.28;;;11.48;67.40
51313;BME280;37397;53.226;10.400;2023-03-20T12:55:11;101245.31;;;11.52;67.12
51313;BME280;37397;53.226;10.400;2023-03-20T12:58:05;101251.34;;;11.54;67.13
51313;BME280;37397;53.226;10.400;2023-03-20T13:00:39;101249.59;;;11.56;67.40
51313;BME280;37397;53.226;10.400;2023-03-20T13:09:21;101249.13;;;11.58;66.83
51313;BME280;37397;53.226;10.400;2023-03-20T13:12:17;101234.84;;;11.58;66.85
51313;BME280;37397;53.226;10.400;2023-03-20T13:17:23;101232.13;;;11.54;67.11
51313;BME280;37397;53.226;10.400;2023-03-20T13:20:08;101233.22;;;11.57;67.08
51313;BME280;37397;53.226;10.400;2023-03-20T13:28:35;101236.75;;;11.61;66.81
51313;BME280;37397;53.226;10.400;2023-03-20T13:31:19;101221.31;;;11.58;66.82
51313;BME280;37397;53.226;10.400;2023-03-20T13:33:58;101231.16;;;11.57;67.10
51313;BME280;37397;53.226;10.400;2023-03-20T13:39:25;101214.81;;;11.58;67.04
51313;BME280;37397;53.226;10.400;2023-03-20T13:41:54;101212.09;;;11.63;66.80
51313;BME280;37397;53.226;10.400;2023-03-20T13:44:22;101222.28;;;11.64;66.59
51313;BME280;37397;53.226;10.400;2023-03-20T13:47:03;101215.25;;;11.65;66.63
51313;BME280;37397;53.226;10.400;2023-03-20T13:49:35;101212.75;;;11.67;66.77
51313;BME280;37397;53.226;10.400;2023-03-20T13:52:15;101208.28;;;11.66;66.70
51313;BME280;37397;53.226;10.400;2023-03-20T13:54:50;101215.91;;;11.70;66.40
51313;BME280;37397;53.226;10.400;2023-03-20T13:59:59;101203.50;;;11.73;66.31
51313;BME280;37397;53.226;10.400;2023-03-20T14:02:38;101194.44;;;11.74;66.37
51313;BME280;37397;53.226;10.400;2023-03-20T14:05:22;101190.00;;;11.73;66.36
51313;BME280;37397;53.226;10.400;2023-03-20T14:07:56;101195.53;;;11.77;66.40
51313;BME280;37397;53.226;10.400;2023-03-20T14:15:21;101186.81;;;11.80;66.09
51313;BME280;37397;53.226;10.400;2023-03-20T14:17:51;101187.59;;;11.81;65.87
51313;BME280;37397;53.226;10.400;2023-03-20T14:20:36;101190.75;;;11.83;66.03
51313;BME280;37397;53.226;10.400;2023-03-20T14:23:04;101192.66;;;11.86;65.87
51313;BME280;37397;53.226;10.400;2023-03-20T14:25:35;101189.81;;;11.86;65.78
51313;BME280;37397;53.226;10.400;2023-03-20T14:30:46;101180.13;;;11.83;65.88
51313;BME280;37397;53.226;10.400;2023-03-20T14:35:48;101181.53;;;11.88;65.78
51313;BME280;37397;53.226;10.400;2023-03-20T14:38:43;101193.78;;;11.89;65.70
51313;BME280;37397;53.226;10.400;2023-03-20T14:41:36;101185.38;;;11.85;65.71
51313;BME280;37397;53.226;10.400;2023-03-20T14:46:51;101196.16;;;11.90;65.53